createdAt,value
2023-02-03T00:01:03.000Z,42.9
2023-02-03T00:02:13.000Z,42.9
2023-02-03T00:04:33.000Z,43
2023-02-03T00:05:42.000Z,43
2023-02-03T00:06:52.794Z,43
2023-02-03T00:08:02.911Z,43
2023-02-03T00:09:13.000Z,43
2023-02-03T00:10:23.137Z,43
2023-02-03T00:11:33.000Z,43
2023-02-03T00:12:43.353Z,43
2023-02-03T00:13:53.000Z,43
2023-02-03T00:15:02.000Z,43
2023-02-03T00:16:11.000Z,43
2023-02-03T00:17:20.887Z,43
2023-02-03T00:18:30.000Z,43
2023-02-03T00:19:39.000Z,43
2023-02-03T00:20:48.000Z,43
2023-02-03T00:21:58.000Z,43
2023-02-03T00:23:08.000Z,43
2023-02-03T00:24:18.000Z,43
2023-02-03T00:25:28.000Z,43
2023-02-03T00:26:38.000Z,43
2023-02-03T00:27:49.002Z,43
2023-02-03T00:28:59.000Z,43.1
2023-02-03T00:30:09.000Z,43
2023-02-03T00:31:19.000Z,43.1
2023-02-03T00:32:29.000Z,43.1
2023-02-03T00:33:39.583Z,43.1
2023-02-03T00:34:49.000Z,43.1
2023-02-03T00:35:58.000Z,43.1
2023-02-03T00:37:08.000Z,43.1
2023-02-03T00:38:19.000Z,43.1
2023-02-03T00:39:29.000Z,43.1
2023-02-03T00:40:39.000Z,43.1
2023-02-03T00:41:49.000Z,43.1
2023-02-03T00:42:59.516Z,43.1
2023-02-03T00:44:08.000Z,43.1
2023-02-03T00:45:17.000Z,43.1
2023-02-03T00:46:27.000Z,43.1
2023-02-03T00:47:37.000Z,43.1
2023-02-03T00:48:46.000Z,43.1
2023-02-03T00:49:56.000Z,43.1
2023-02-03T00:51:06.000Z,43.1
2023-02-03T00:53:26.638Z,43.1
2023-02-03T00:54:36.760Z,43.1
2023-02-03T00:55:46.000Z,43.1
2023-02-03T00:56:56.992Z,43.1
2023-02-03T00:58:07.110Z,43.1
2023-02-03T00:59:17.000Z,43.1
2023-02-03T01:00:27.000Z,43.1
2023-02-03T01:01:37.449Z,43.2
2023-02-03T01:02:47.000Z,43.1
2023-02-03T01:03:56.710Z,43.1
2023-02-03T01:05:06.829Z,43.1
2023-02-03T01:06:16.000Z,43.2
2023-02-03T01:07:27.048Z,43.1
2023-02-03T01:08:37.000Z,43.1
2023-02-03T01:09:47.000Z,43.2
2023-02-03T01:10:57.000Z,43.1
2023-02-03T01:12:07.514Z,43.1
2023-02-03T01:13:16.655Z,43.2
2023-02-03T01:14:25.783Z,43.2
2023-02-03T01:15:35.000Z,43.2
2023-02-03T01:16:46.017Z,43.2
2023-02-03T01:19:06.000Z,43.2
2023-02-03T01:20:16.372Z,43.2
2023-02-03T01:21:26.000Z,43.2
2023-02-03T01:22:36.594Z,43.2
2023-02-03T01:23:46.719Z,43.2
2023-02-03T01:24:56.000Z,43.2
2023-02-03T01:26:06.000Z,43.2
2023-02-03T01:27:17.000Z,43.2
2023-02-03T01:28:26.000Z,43.2
2023-02-03T01:29:36.000Z,43.2
2023-02-03T01:30:46.430Z,43.2
2023-02-03T01:31:56.542Z,43.2
2023-02-03T01:33:06.678Z,43.2
2023-02-03T01:34:16.000Z,43.2
2023-02-03T01:35:26.000Z,43.2
2023-02-03T01:36:37.009Z,43.2
2023-02-03T01:37:47.000Z,43.2
2023-02-03T01:38:56.000Z,43.2
2023-02-03T01:40:05.000Z,43.2
2023-02-03T01:41:14.000Z,43.2
2023-02-03T01:42:23.000Z,43.2
2023-02-03T01:43:33.000Z,43.3
2023-02-03T01:44:43.000Z,43.3
2023-02-03T01:45:53.000Z,43.3
2023-02-03T01:47:02.184Z,43.3
2023-02-03T01:48:12.000Z,43.3
2023-02-03T01:49:22.000Z,43.2
2023-02-03T01:50:32.000Z,43.3
2023-02-03T01:51:42.641Z,43.3
2023-02-03T01:52:52.000Z,43.3
2023-02-03T01:54:02.000Z,43.3
2023-02-03T01:55:13.001Z,43.3
2023-02-03T01:56:23.104Z,43.3
2023-02-03T01:57:33.234Z,43.3
2023-02-03T01:58:43.343Z,43.3
2023-02-03T01:59:53.000Z,43.3
2023-02-03T02:01:03.000Z,43.3
2023-02-03T02:02:12.000Z,43.3
2023-02-03T02:03:22.000Z,43.3
2023-02-03T02:04:32.000Z,43.3
2023-02-03T02:05:43.065Z,43.3
2023-02-03T02:06:53.164Z,43.3
2023-02-03T02:08:03.278Z,43.3
2023-02-03T02:09:13.000Z,43.3
2023-02-03T02:10:22.000Z,43.3
2023-02-03T02:11:31.000Z,43.3
2023-02-03T02:12:41.787Z,43.3
2023-02-03T02:13:50.000Z,43.3
2023-02-03T02:15:00.078Z,43.3
2023-02-03T02:16:10.000Z,43.3
2023-02-03T02:17:20.000Z,43.3
2023-02-03T02:18:30.421Z,43.3
2023-02-03T02:19:40.000Z,43.3
2023-02-03T02:20:50.000Z,43.3
2023-02-03T02:22:00.000Z,43.4
2023-02-03T02:23:10.000Z,43.4
2023-02-03T02:24:20.000Z,43.3
2023-02-03T02:25:31.000Z,43.3
2023-02-03T02:26:41.000Z,43.4
2023-02-03T02:27:51.341Z,43.4
2023-02-03T02:29:01.454Z,43.4
2023-02-03T02:30:10.585Z,43.4
2023-02-03T02:31:20.000Z,43.3
2023-02-03T02:32:30.000Z,43.4
2023-02-03T02:33:40.931Z,43.4
2023-02-03T02:34:51.091Z,43.4
2023-02-03T02:36:01.163Z,43.4
2023-02-03T02:37:11.000Z,43.4
2023-02-03T02:38:20.000Z,43.4
2023-02-03T02:39:29.000Z,43.4
2023-02-03T02:40:39.700Z,43.4
2023-02-03T02:41:49.000Z,43.4
2023-02-03T02:42:58.000Z,43.4
2023-02-03T02:44:08.000Z,43.4
2023-02-03T02:45:18.175Z,43.4
2023-02-03T02:46:28.000Z,43.4
2023-02-03T02:47:38.406Z,43.4
2023-02-03T02:48:48.000Z,43.4
2023-02-03T02:49:58.636Z,43.4
2023-02-03T02:51:08.762Z,43.4
2023-02-03T02:52:18.000Z,43.4
2023-02-03T02:53:28.985Z,43.4
2023-02-03T02:54:39.114Z,43.4
2023-02-03T02:55:49.000Z,43.4
2023-02-03T02:56:59.000Z,43.4
2023-02-03T02:58:09.000Z,43.5
2023-02-03T02:59:18.584Z,43.4
2023-02-03T03:00:28.000Z,43.5
2023-02-03T03:01:38.838Z,43.4
2023-02-03T03:02:48.000Z,43.4
2023-02-03T03:03:59.000Z,43.4
2023-02-03T03:05:09.165Z,43.5
2023-02-03T03:06:19.000Z,43.5
2023-02-03T03:08:38.533Z,43.5
2023-02-03T03:09:47.693Z,43.5
2023-02-03T03:10:56.819Z,43.4
2023-02-03T03:12:05.000Z,43.5
2023-02-03T03:13:15.084Z,43.5
2023-02-03T03:14:25.000Z,43.5
2023-02-03T03:15:35.000Z,43.5
2023-02-03T03:16:45.000Z,43.5
2023-02-03T03:17:55.000Z,43.6
2023-02-03T03:19:05.000Z,43.5
2023-02-03T03:20:15.000Z,43.5
2023-02-03T03:22:36.012Z,43.6
2023-02-03T03:23:46.000Z,43.6
2023-02-03T03:24:56.242Z,43.6
2023-02-03T03:26:06.364Z,43.6
2023-02-03T03:27:16.000Z,43.6
2023-02-03T03:28:25.000Z,43.6
2023-02-03T03:29:35.000Z,43.6
2023-02-03T03:30:45.000Z,43.6
2023-02-03T03:31:55.000Z,43.5
2023-02-03T03:33:06.000Z,43.6
2023-02-03T03:34:16.183Z,43.6
2023-02-03T03:35:26.000Z,43.6
2023-02-03T03:36:36.000Z,43.6
2023-02-03T03:37:45.000Z,43.6
2023-02-03T03:38:55.000Z,43.6
2023-02-03T03:40:04.000Z,43.6
2023-02-03T03:41:14.000Z,43.6
2023-02-03T03:42:24.000Z,43.6
2023-02-03T03:43:33.203Z,43.6
2023-02-03T03:44:43.000Z,43.6
2023-02-03T03:45:53.000Z,43.6
2023-02-03T03:48:13.666Z,43.6
2023-02-03T03:49:23.000Z,43.6
2023-02-03T03:50:33.893Z,43.6
2023-02-03T03:51:44.010Z,43.6
2023-02-03T03:52:54.000Z,43.6
2023-02-03T03:54:04.240Z,43.6
2023-02-03T03:55:14.353Z,43.6
2023-02-03T03:56:24.480Z,43.6
2023-02-03T03:57:34.595Z,43.6
2023-02-03T03:58:43.728Z,43.6
2023-02-03T03:59:53.848Z,43.6
2023-02-03T04:01:03.000Z,43.6
2023-02-03T04:02:14.000Z,43.6
2023-02-03T04:03:24.000Z,43.6
2023-02-03T04:04:34.000Z,43.6
2023-02-03T04:05:44.415Z,43.6
2023-02-03T04:06:54.000Z,43.6
2023-02-03T04:08:03.000Z,43.6
2023-02-03T04:09:12.807Z,43.7
2023-02-03T04:10:21.957Z,43.7
2023-02-03T04:11:31.000Z,43.7
2023-02-03T04:12:41.000Z,43.7
2023-02-03T04:13:51.000Z,43.7
2023-02-03T04:15:01.426Z,43.7
2023-02-03T04:16:11.544Z,43.7
2023-02-03T04:17:21.000Z,43.6
2023-02-03T04:18:31.770Z,43.7
2023-02-03T04:19:41.894Z,43.7
2023-02-03T04:20:52.000Z,43.7
2023-02-03T04:22:02.000Z,43.6
2023-02-03T04:23:12.000Z,43.6
2023-02-03T04:24:22.359Z,43.7
2023-02-03T04:25:32.000Z,43.7
2023-02-03T04:26:41.000Z,43.7
2023-02-03T04:27:51.714Z,43.7
2023-02-03T04:29:01.836Z,43.7
2023-02-03T04:30:11.965Z,43.7
2023-02-03T04:31:22.000Z,43.7
2023-02-03T04:32:32.196Z,43.7
2023-02-03T04:33:42.000Z,43.7
2023-02-03T04:34:51.000Z,43.7
2023-02-03T04:36:00.000Z,43.7
2023-02-03T04:37:10.000Z,43.7
2023-02-03T04:38:20.000Z,43.7
2023-02-03T04:39:30.922Z,43.7
2023-02-03T04:40:40.000Z,43.7
2023-02-03T04:41:49.000Z,43.7
2023-02-03T04:42:59.311Z,43.7
2023-02-03T04:44:09.000Z,43.7
2023-02-03T04:45:19.549Z,43.7
2023-02-03T04:46:29.665Z,43.7
2023-02-03T04:47:39.769Z,43.7
2023-02-03T04:48:49.000Z,43.7
2023-02-03T04:50:00.008Z,43.7
2023-02-03T04:51:10.000Z,43.7
2023-02-03T04:52:20.000Z,43.7
2023-02-03T04:53:30.363Z,43.7
2023-02-03T04:54:40.000Z,43.7
2023-02-03T04:55:50.000Z,43.7
2023-02-03T04:56:59.000Z,43.7
2023-02-03T04:58:09.831Z,43.7
2023-02-03T04:59:19.949Z,43.7
2023-02-03T05:00:30.061Z,43.7
2023-02-03T05:01:40.000Z,43.7
2023-02-03T05:02:50.000Z,43.7
2023-02-03T05:04:00.000Z,43.7
2023-02-03T05:05:09.554Z,43.7
2023-02-03T05:06:18.683Z,43.7
2023-02-03T05:07:28.805Z,43.7
2023-02-03T05:08:37.948Z,43.7
2023-02-03T05:09:47.000Z,43.7
2023-02-03T05:10:57.000Z,43.7
2023-02-03T05:12:07.303Z,43.8
2023-02-03T05:13:17.000Z,43.8
2023-02-03T05:14:27.000Z,43.8
2023-02-03T05:15:37.000Z,43.8
2023-02-03T05:16:47.768Z,43.8
2023-02-03T05:17:57.000Z,43.7
2023-02-03T05:19:08.000Z,43.7
2023-02-03T05:20:18.000Z,43.8
2023-02-03T05:21:28.000Z,43.8
2023-02-03T05:22:37.000Z,43.8
2023-02-03T05:23:47.000Z,43.8
2023-02-03T05:24:57.000Z,43.7
2023-02-03T05:26:07.715Z,43.8
2023-02-03T05:27:17.000Z,43.8
2023-02-03T05:28:27.000Z,43.8
2023-02-03T05:29:38.073Z,43.8
2023-02-03T05:30:48.000Z,43.8
2023-02-03T05:31:58.000Z,43.8
2023-02-03T05:33:07.437Z,43.8
2023-02-03T05:34:16.577Z,43.8
2023-02-03T05:35:26.000Z,43.8
2023-02-03T05:36:36.000Z,43.8
2023-02-03T05:37:45.000Z,43.8
2023-02-03T05:38:55.000Z,43.8
2023-02-03T05:40:05.206Z,43.8
2023-02-03T05:41:15.000Z,43.8
2023-02-03T05:42:25.000Z,43.8
2023-02-03T05:43:35.539Z,43.8
2023-02-03T05:44:45.671Z,43.8
2023-02-03T05:45:55.000Z,43.8
2023-02-03T05:47:05.892Z,43.8
2023-02-03T05:48:16.003Z,43.8
2023-02-03T05:49:26.000Z,43.8
2023-02-03T05:50:36.000Z,43.8
2023-02-03T05:51:46.000Z,43.8
2023-02-03T05:52:56.465Z,43.8
2023-02-03T05:54:05.599Z,43.8
2023-02-03T05:55:15.000Z,43.8
2023-02-03T05:56:25.841Z,43.8
2023-02-03T05:57:35.000Z,43.8
2023-02-03T05:58:46.000Z,43.8
2023-02-03T05:59:56.000Z,43.8
2023-02-03T06:01:06.000Z,43.9
2023-02-03T06:02:15.000Z,44
2023-02-03T06:03:24.000Z,44
2023-02-03T06:04:33.000Z,44.2
2023-02-03T06:05:42.000Z,44.3
2023-02-03T06:06:52.969Z,44.4
2023-02-03T06:08:03.000Z,44.5
2023-02-03T06:09:13.201Z,44.6
2023-02-03T06:10:23.000Z,44.6
2023-02-03T06:11:33.000Z,44.7
2023-02-03T06:12:43.000Z,44.7
2023-02-03T06:13:53.000Z,44.7
2023-02-03T06:15:03.000Z,44.6
2023-02-03T06:16:13.000Z,44.6
2023-02-03T06:17:24.000Z,44.6
2023-02-03T06:18:34.000Z,44.6
2023-02-03T06:19:44.000Z,44.6
2023-02-03T06:22:03.486Z,44.5
2023-02-03T06:23:13.000Z,44.5
2023-02-03T06:24:23.712Z,44.4
2023-02-03T06:25:33.000Z,44.4
2023-02-03T06:26:43.000Z,44.4
2023-02-03T06:27:54.064Z,44.3
2023-02-03T06:29:04.000Z,44.3
2023-02-03T06:32:33.000Z,44.1
2023-02-03T06:33:42.708Z,44
2023-02-03T06:34:51.831Z,44
2023-02-03T06:36:01.943Z,43.9
2023-02-03T06:37:11.000Z,43.9
2023-02-03T06:38:20.000Z,43.8
2023-02-03T06:39:30.000Z,43.8
2023-02-03T06:40:40.000Z,43.7
2023-02-03T06:41:50.564Z,43.7
2023-02-03T06:43:00.682Z,43.6
2023-02-03T06:44:10.000Z,43.6
2023-02-03T06:45:20.000Z,43.5
2023-02-03T06:46:31.000Z,43.5
2023-02-03T06:47:41.139Z,43.5
2023-02-03T06:48:51.000Z,43.4
2023-02-03T06:50:00.000Z,43.4
2023-02-03T06:51:09.000Z,43.3
2023-02-03T06:52:19.000Z,43.3
2023-02-03T06:53:29.000Z,43.3
2023-02-03T06:54:39.000Z,43.2
2023-02-03T06:55:50.000Z,43.2
2023-02-03T06:57:00.000Z,43.2
2023-02-03T06:58:10.235Z,43.1
2023-02-03T06:59:20.000Z,43.1
2023-02-03T07:00:30.000Z,43.1
2023-02-03T07:01:40.000Z,43.1
2023-02-03T07:02:50.000Z,43
2023-02-03T07:04:00.803Z,43
2023-02-03T07:05:10.000Z,43
2023-02-03T07:06:20.058Z,43
2023-02-03T07:07:30.167Z,42.9
2023-02-03T07:08:40.000Z,42.9
2023-02-03T07:09:50.000Z,42.9
2023-02-03T07:11:00.000Z,42.8
2023-02-03T07:12:10.630Z,42.8
2023-02-03T07:13:20.752Z,42.8
2023-02-03T07:14:31.000Z,42.8
2023-02-03T07:15:40.000Z,42.7
2023-02-03T07:16:49.000Z,42.7
2023-02-03T07:17:58.000Z,42.7
2023-02-03T07:19:08.537Z,42.7
2023-02-03T07:20:18.000Z,42.6
2023-02-03T07:21:28.766Z,42.6
2023-02-03T07:22:38.000Z,42.6
2023-02-03T07:23:49.000Z,42.6
2023-02-03T07:24:59.000Z,42.6
2023-02-03T07:26:09.234Z,42.6
2023-02-03T07:27:19.000Z,42.5
2023-02-03T07:28:29.000Z,42.5
2023-02-03T07:29:39.580Z,42.5
2023-02-03T07:30:49.000Z,42.5
2023-02-03T07:31:59.000Z,42.5
2023-02-03T07:33:08.944Z,42.5
2023-02-03T07:34:19.054Z,42.5
2023-02-03T07:35:29.000Z,42.4
2023-02-03T07:36:39.293Z,42.4
2023-02-03T07:37:49.000Z,42.4
2023-02-03T07:38:59.000Z,42.4
2023-02-03T07:40:09.000Z,42.4
2023-02-03T07:41:18.000Z,42.4
2023-02-03T07:42:27.000Z,42.4
2023-02-03T07:43:37.000Z,42.3
2023-02-03T07:44:46.183Z,42.3
2023-02-03T07:45:56.000Z,42.3
2023-02-03T07:47:06.000Z,42.3
2023-02-03T07:48:16.531Z,42.3
2023-02-03T07:49:26.000Z,42.3
2023-02-03T07:50:36.000Z,42.3
2023-02-03T07:51:46.897Z,42.3
2023-02-03T07:52:56.997Z,42.3
2023-02-03T07:54:07.129Z,42.3
2023-02-03T07:55:17.229Z,42.3
2023-02-03T07:56:27.343Z,42.3
2023-02-03T07:57:37.467Z,42.2
2023-02-03T07:58:47.000Z,42.3
2023-02-03T07:59:57.698Z,42.2
2023-02-03T08:01:06.000Z,42.2
2023-02-03T08:02:16.939Z,42.2
2023-02-03T08:03:27.000Z,42.1
2023-02-03T08:04:37.171Z,42.1
2023-02-03T08:05:47.000Z,42.1
2023-02-03T08:06:57.000Z,42.1
2023-02-03T08:08:06.563Z,42.1
2023-02-03T08:09:15.681Z,42.1
2023-02-03T08:10:25.000Z,42.1
2023-02-03T08:11:35.909Z,42.1
2023-02-03T08:12:46.000Z,42.1
2023-02-03T08:13:56.000Z,42.1
2023-02-03T08:15:06.000Z,42.1
2023-02-03T08:16:16.000Z,42
2023-02-03T08:17:26.000Z,42
2023-02-03T08:18:36.611Z,42
2023-02-03T08:19:46.731Z,42
2023-02-03T08:20:56.839Z,42
2023-02-03T08:22:06.954Z,42
2023-02-03T08:23:17.000Z,42
2023-02-03T08:24:26.000Z,42
2023-02-03T08:25:36.335Z,42
2023-02-03T08:26:46.439Z,42
2023-02-03T08:27:56.000Z,42
2023-02-03T08:29:06.000Z,42
2023-02-03T08:30:16.785Z,42
2023-02-03T08:31:26.000Z,42
2023-02-03T08:32:36.000Z,41.9
2023-02-03T08:33:45.178Z,42
2023-02-03T08:34:54.316Z,41.9
2023-02-03T08:36:03.458Z,41.9
2023-02-03T08:37:13.575Z,41.9
2023-02-03T08:38:23.683Z,41.9
2023-02-03T08:39:33.804Z,41.9
2023-02-03T08:40:43.917Z,41.9
2023-02-03T08:41:54.033Z,41.9
2023-02-03T08:43:04.000Z,41.9
2023-02-03T08:44:14.278Z,41.9
2023-02-03T08:45:24.000Z,41.9
2023-02-03T08:46:34.000Z,41.9
2023-02-03T08:47:44.613Z,41.9
2023-02-03T08:48:54.731Z,41.9
2023-02-03T08:50:04.000Z,41.9
2023-02-03T08:51:13.000Z,41.9
2023-02-03T08:52:24.000Z,41.9
2023-02-03T08:53:34.000Z,41.9
2023-02-03T08:54:44.000Z,41.8
2023-02-03T08:55:54.000Z,41.8
2023-02-03T08:57:04.000Z,41.9
2023-02-03T08:58:14.675Z,41.9
2023-02-03T08:59:23.817Z,41.9
2023-02-03T09:00:32.948Z,41.8
2023-02-03T09:01:43.073Z,41.9
2023-02-03T09:02:53.000Z,41.8
2023-02-03T09:04:03.307Z,41.8
2023-02-03T09:05:13.426Z,41.8
2023-02-03T09:06:23.000Z,41.8
2023-02-03T09:07:33.000Z,41.8
2023-02-03T09:08:43.000Z,41.8
2023-02-03T09:09:53.000Z,41.8
2023-02-03T09:11:04.000Z,41.8
2023-02-03T09:12:14.000Z,41.8
2023-02-03T09:13:24.000Z,41.8
2023-02-03T09:14:34.000Z,41.8
2023-02-03T09:15:43.473Z,41.8
2023-02-03T09:16:52.000Z,41.8
2023-02-03T09:18:02.000Z,41.8
2023-02-03T09:19:12.000Z,41.8
2023-02-03T09:20:22.000Z,41.8
2023-02-03T09:21:33.083Z,41.8
2023-02-03T09:23:53.000Z,41.8
2023-02-03T09:25:02.000Z,41.8
2023-02-03T09:26:11.000Z,41.8
2023-02-03T09:27:20.000Z,41.8
2023-02-03T09:28:29.000Z,41.8
2023-02-03T09:29:39.001Z,41.8
2023-02-03T09:30:48.000Z,41.8
2023-02-03T09:31:58.248Z,41.8
2023-02-03T09:33:08.378Z,41.8
2023-02-03T09:34:18.000Z,41.8
2023-02-03T09:35:28.000Z,41.8
2023-02-03T09:36:38.000Z,41.8
2023-02-03T09:37:48.000Z,41.8
2023-02-03T09:38:58.000Z,41.8
2023-02-03T09:40:09.064Z,41.8
2023-02-03T09:41:19.000Z,41.8
2023-02-03T09:42:29.000Z,41.8
2023-02-03T09:43:39.000Z,41.8
2023-02-03T09:44:49.000Z,41.8
2023-02-03T09:45:58.000Z,41.8
2023-02-03T09:47:08.779Z,41.8
2023-02-03T09:48:18.891Z,41.8
2023-02-03T09:49:29.000Z,41.8
2023-02-03T09:50:39.000Z,41.8
2023-02-03T09:51:49.000Z,41.8
2023-02-03T09:52:59.000Z,41.8
2023-02-03T09:54:08.499Z,41.8
2023-02-03T09:55:17.000Z,41.8
2023-02-03T09:56:26.000Z,41.8
2023-02-03T09:57:35.904Z,41.8
2023-02-03T09:58:46.000Z,41.8
2023-02-03T09:59:56.145Z,41.8
2023-02-03T10:01:06.249Z,41.8
2023-02-03T10:02:16.000Z,41.8
2023-02-03T10:03:26.481Z,41.8
2023-02-03T10:04:36.597Z,41.8
2023-02-03T10:05:46.723Z,41.8
2023-02-03T10:06:56.839Z,41.8
2023-02-03T10:08:06.000Z,41.8
2023-02-03T10:09:17.070Z,41.8
2023-02-03T10:10:27.178Z,41.8
2023-02-03T10:11:37.000Z,41.8
2023-02-03T10:12:46.425Z,41.8
2023-02-03T10:13:56.000Z,41.8
2023-02-03T10:15:06.000Z,41.8
2023-02-03T10:16:16.000Z,41.8
2023-02-03T10:17:26.892Z,41.8
2023-02-03T10:18:37.000Z,41.9
2023-02-03T10:19:47.122Z,41.9
2023-02-03T10:20:56.000Z,41.9
2023-02-03T10:22:06.000Z,41.9
2023-02-03T10:23:15.652Z,41.9
2023-02-03T10:24:24.000Z,41.9
2023-02-03T10:25:34.000Z,41.9
2023-02-03T10:26:45.018Z,41.9
2023-02-03T10:27:55.130Z,41.9
2023-02-03T10:29:05.000Z,41.9
2023-02-03T10:30:15.000Z,41.9
2023-02-03T10:31:25.483Z,41.9
2023-02-03T10:32:35.000Z,41.9
2023-02-03T10:33:45.708Z,41.9
2023-02-03T10:34:55.827Z,41.9
2023-02-03T10:36:05.000Z,41.9
2023-02-03T10:37:16.000Z,41.9
2023-02-03T10:38:26.174Z,41.9
2023-02-03T10:39:35.000Z,41.9
2023-02-03T10:40:45.000Z,41.9
2023-02-03T10:43:05.668Z,41.9
2023-02-03T10:44:15.769Z,41.9
2023-02-03T10:45:25.000Z,41.9
2023-02-03T10:46:36.000Z,42
2023-02-03T10:47:46.000Z,42
2023-02-03T10:48:55.255Z,42
2023-02-03T10:50:04.388Z,42.1
2023-02-03T10:51:14.000Z,42.1
2023-02-03T10:52:24.000Z,42.1
2023-02-03T10:53:34.738Z,42.2
2023-02-03T10:54:44.000Z,42.2
2023-02-03T10:55:54.000Z,42.2
2023-02-03T10:57:05.084Z,42.3
2023-02-03T10:58:15.000Z,42.3
2023-02-03T10:59:25.315Z,42.4
2023-02-03T11:00:35.000Z,42.4
2023-02-03T11:01:45.000Z,42.4
2023-02-03T11:02:55.000Z,42.5
2023-02-03T11:04:05.000Z,42.5
2023-02-03T11:05:14.000Z,42.5
2023-02-03T11:06:25.028Z,42.5
2023-02-03T11:07:35.155Z,42.5
2023-02-03T11:08:45.267Z,42.5
2023-02-03T11:09:55.375Z,42.6
2023-02-03T11:11:05.000Z,42.6
2023-02-03T11:12:15.000Z,42.6
2023-02-03T11:13:24.759Z,42.6
2023-02-03T11:14:33.000Z,42.6
2023-02-03T11:15:43.000Z,42.6
2023-02-03T11:16:52.000Z,42.6
2023-02-03T11:18:01.304Z,42.6
2023-02-03T11:19:10.438Z,42.6
2023-02-03T11:20:20.000Z,42.6
2023-02-03T11:21:30.000Z,42.6
2023-02-03T11:22:40.000Z,42.6
2023-02-03T11:23:50.903Z,42.6
2023-02-03T11:25:01.000Z,42.7
2023-02-03T11:26:11.137Z,42.6
2023-02-03T11:27:21.000Z,42.6
2023-02-03T11:28:31.358Z,42.6
2023-02-03T11:29:41.475Z,42.6
2023-02-03T11:30:51.000Z,42.6
2023-02-03T11:32:01.000Z,42.6
2023-02-03T11:33:11.824Z,42.6
2023-02-03T11:34:20.954Z,42.6
2023-02-03T11:35:31.082Z,42.6
2023-02-03T11:36:41.000Z,42.6
2023-02-03T11:37:51.000Z,42.6
2023-02-03T11:39:01.000Z,42.6
2023-02-03T11:40:11.000Z,42.6
2023-02-03T11:41:21.000Z,42.6
2023-02-03T11:42:30.791Z,42.6
2023-02-03T11:43:39.000Z,42.6
2023-02-03T11:44:49.066Z,42.6
2023-02-03T11:45:58.198Z,42.6
2023-02-03T11:47:08.000Z,42.6
2023-02-03T11:48:18.000Z,42.6
2023-02-03T11:49:28.000Z,42.6
2023-02-03T11:50:38.000Z,42.6
2023-02-03T11:51:48.000Z,42.6
2023-02-03T11:52:58.901Z,42.6
2023-02-03T11:54:09.009Z,42.5
2023-02-03T11:55:19.129Z,42.5
2023-02-03T11:56:29.240Z,42.5
2023-02-03T11:57:39.359Z,42.5
2023-02-03T11:58:49.470Z,42.5
2023-02-03T11:59:59.000Z,42.5
2023-02-03T12:01:08.718Z,42.5
2023-02-03T12:02:18.000Z,42.4
2023-02-03T12:03:28.953Z,42.4
2023-02-03T12:04:39.069Z,42.3
2023-02-03T12:05:49.000Z,42.3
2023-02-03T12:06:59.304Z,42.3
2023-02-03T12:08:09.000Z,42.3
2023-02-03T12:09:18.000Z,42.3
2023-02-03T12:10:27.000Z,42.3
2023-02-03T12:11:36.838Z,42.2
2023-02-03T12:12:45.000Z,42.2
2023-02-03T12:13:56.000Z,42.2
2023-02-03T12:15:06.000Z,42.2
2023-02-03T12:16:16.311Z,42.2
2023-02-03T12:17:26.000Z,42.1
2023-02-03T12:18:36.546Z,42.1
2023-02-03T12:19:46.000Z,42.1
2023-02-03T12:20:56.000Z,42.1
2023-02-03T12:22:06.000Z,42
2023-02-03T12:23:17.000Z,42
2023-02-03T12:24:27.128Z,42
2023-02-03T12:25:37.241Z,42
2023-02-03T12:26:47.000Z,41.9
2023-02-03T12:27:56.000Z,41.9
2023-02-03T12:29:06.000Z,41.9
2023-02-03T12:30:16.000Z,41.8
2023-02-03T12:31:26.839Z,41.8
2023-02-03T12:32:36.957Z,41.8
2023-02-03T12:33:47.086Z,41.8
2023-02-03T12:34:57.193Z,41.7
2023-02-03T12:36:06.328Z,41.7
2023-02-03T12:37:15.475Z,41.7
2023-02-03T12:38:24.604Z,41.6
2023-02-03T12:39:33.000Z,41.6
2023-02-03T12:40:43.000Z,41.6
2023-02-03T12:41:53.000Z,41.5
2023-02-03T12:43:04.000Z,41.5
2023-02-03T12:44:14.200Z,41.5
2023-02-03T12:45:24.000Z,41.4
2023-02-03T12:46:34.000Z,41.4
2023-02-03T12:47:44.548Z,41.3
2023-02-03T12:48:54.663Z,41.3
2023-02-03T12:50:04.000Z,41.2
2023-02-03T12:51:14.000Z,41.2
2023-02-03T12:52:25.010Z,41.2
2023-02-03T12:53:35.000Z,41.1
2023-02-03T12:54:44.000Z,41.1
2023-02-03T12:55:54.000Z,41
2023-02-03T12:57:04.000Z,41
2023-02-03T12:58:14.000Z,40.9
2023-02-03T12:59:24.725Z,40.9
2023-02-03T13:00:34.845Z,40.8
2023-02-03T13:01:44.000Z,40.8
2023-02-03T13:02:54.000Z,40.8
2023-02-03T13:04:03.000Z,40.6
2023-02-03T13:05:12.375Z,40.7
2023-02-03T13:06:21.000Z,40.6
2023-02-03T13:07:31.000Z,40.6
2023-02-03T13:08:41.738Z,40.6
2023-02-03T13:09:51.855Z,40.5
2023-02-03T13:11:00.992Z,40.5
2023-02-03T13:12:11.000Z,40.5
2023-02-03T13:13:21.236Z,40.4
2023-02-03T13:14:31.000Z,40.4
2023-02-03T13:15:41.000Z,40.4
2023-02-03T13:16:51.573Z,40.3
2023-02-03T13:18:01.000Z,40.3
2023-02-03T13:19:11.000Z,40.3
2023-02-03T13:20:21.935Z,40.3
2023-02-03T13:21:32.036Z,40.2
2023-02-03T13:22:42.151Z,40.1
2023-02-03T13:23:52.000Z,40.1
2023-02-03T13:25:02.000Z,40.2
2023-02-03T13:26:11.000Z,40.1
2023-02-03T13:27:21.000Z,40.1
2023-02-03T13:28:31.000Z,40
2023-02-03T13:29:40.000Z,40
2023-02-03T13:30:50.000Z,39.9
2023-02-03T13:31:59.000Z,39.9
2023-02-03T13:33:08.303Z,39.9
2023-02-03T13:34:18.000Z,39.9
2023-02-03T13:35:28.000Z,39.8
2023-02-03T13:36:38.661Z,39.8
2023-02-03T13:37:48.763Z,39.8
2023-02-03T13:38:58.000Z,39.8
2023-02-03T13:40:08.000Z,39.7
2023-02-03T13:41:19.109Z,39.7
2023-02-03T13:42:29.000Z,39.7
2023-02-03T13:43:39.339Z,39.6
2023-02-03T13:44:49.463Z,39.6
2023-02-03T13:45:59.000Z,39.5
2023-02-03T13:47:09.000Z,39.5
2023-02-03T13:49:28.941Z,39.5
2023-02-03T13:50:39.000Z,39.5
2023-02-03T13:51:49.170Z,39.5
2023-02-03T13:52:59.000Z,39.4
2023-02-03T13:54:09.000Z,39.4
2023-02-03T13:55:19.523Z,39.4
2023-02-03T13:56:29.000Z,39.3
2023-02-03T13:57:38.000Z,39.3
2023-02-03T13:58:47.905Z,39.3
2023-02-03T13:59:57.059Z,39.3
2023-02-03T14:01:06.000Z,39.2
2023-02-03T14:02:16.000Z,39.2
2023-02-03T14:03:26.412Z,39.2
2023-02-03T14:04:36.000Z,39.1
2023-02-03T14:05:46.000Z,39.1
2023-02-03T14:06:56.000Z,39.1
2023-02-03T14:08:06.000Z,39
2023-02-03T14:09:16.000Z,39
2023-02-03T14:10:27.000Z,38.9
2023-02-03T14:11:37.233Z,38.8
2023-02-03T14:12:47.000Z,38.8
2023-02-03T14:13:57.455Z,38.8
2023-02-03T14:15:07.000Z,38.8
2023-02-03T14:16:17.684Z,38.6
2023-02-03T14:17:26.000Z,38.6
2023-02-03T14:18:36.934Z,38.6
2023-02-03T14:19:47.000Z,38.5
2023-02-03T14:20:57.000Z,38.5
2023-02-03T14:22:07.000Z,38.5
2023-02-03T14:23:17.397Z,38.5
2023-02-03T14:24:26.000Z,38.5
2023-02-03T14:25:35.672Z,38.5
2023-02-03T14:26:45.000Z,38.3
2023-02-03T14:27:54.000Z,38.3
2023-02-03T14:29:04.065Z,38.3
2023-02-03T14:30:14.000Z,38.3
2023-02-03T14:31:24.000Z,38.3
2023-02-03T14:32:34.414Z,38.3
2023-02-03T14:33:44.526Z,38.1
2023-02-03T14:34:54.647Z,38.1
2023-02-03T14:36:04.768Z,38.1
2023-02-03T14:37:14.876Z,38.1
2023-02-03T14:38:24.992Z,38.1
2023-02-03T14:39:35.000Z,38.1
2023-02-03T14:40:45.000Z,38
2023-02-03T14:41:55.334Z,38
2023-02-03T14:43:05.000Z,37.9
2023-02-03T14:45:24.000Z,37.9
2023-02-03T14:46:34.832Z,37.9
2023-02-03T14:47:44.938Z,37.8
2023-02-03T14:48:55.000Z,37.8
2023-02-03T14:50:05.000Z,37.8
2023-02-03T14:52:25.000Z,37.8
2023-02-03T14:53:35.000Z,37.8
2023-02-03T14:54:45.000Z,37.6
2023-02-03T14:55:54.000Z,37.6
2023-02-03T14:57:03.000Z,37.6
2023-02-03T14:58:13.000Z,37.6
2023-02-03T14:59:22.000Z,37.5
2023-02-03T15:00:32.287Z,37.5
2023-02-03T15:01:42.000Z,37.4
2023-02-03T15:02:52.000Z,37.4
2023-02-03T15:04:02.000Z,37.3
2023-02-03T15:05:12.000Z,37.3
2023-02-03T15:06:22.000Z,37.3
2023-02-03T15:07:32.000Z,37.2
2023-02-03T15:08:43.000Z,37.2
2023-02-03T15:09:53.220Z,37.1
2023-02-03T15:11:03.000Z,37.1
2023-02-03T15:12:13.461Z,37
2023-02-03T15:13:23.000Z,37
2023-02-03T15:14:32.696Z,37
2023-02-03T15:15:42.000Z,36.9
2023-02-03T15:16:52.924Z,36.9
2023-02-03T15:18:03.043Z,36.9
2023-02-03T15:19:13.000Z,36.8
2023-02-03T15:20:23.000Z,36.8
2023-02-03T15:21:33.000Z,36.8
2023-02-03T15:22:42.000Z,36.8
2023-02-03T15:23:51.661Z,36.8
2023-02-03T15:25:00.000Z,36.7
2023-02-03T15:26:09.941Z,36.7
2023-02-03T15:27:20.000Z,36.6
2023-02-03T15:28:30.182Z,36.7
2023-02-03T15:29:40.294Z,36.6
2023-02-03T15:30:50.000Z,36.6
2023-02-03T15:32:00.000Z,36.6
2023-02-03T15:33:10.000Z,36.6
2023-02-03T15:34:20.000Z,36.5
2023-02-03T15:35:30.000Z,36.5
2023-02-03T15:36:40.000Z,36.4
2023-02-03T15:37:51.099Z,36.4
2023-02-03T15:39:01.000Z,36.4
2023-02-03T15:40:11.000Z,36.3
2023-02-03T15:41:20.000Z,36.3
2023-02-03T15:42:30.000Z,36.3
2023-02-03T15:43:40.700Z,36.3
2023-02-03T15:44:50.812Z,36.2
2023-02-03T15:46:00.924Z,36.2
2023-02-03T15:47:11.000Z,36.2
2023-02-03T15:48:21.156Z,36.2
2023-02-03T15:49:30.000Z,36.2
2023-02-03T15:50:39.000Z,36.1
2023-02-03T15:51:49.553Z,36.1